Waterloo, IA (50701)

1:53 AM CDT on August 28, 2015 (GMT -0500)
Columbus Dr - Waterloo | | Change Station
CLOSE
Current Station
Personal Weather Station
Location: Waterloo, IA
Elevation: 910 ft
Nearby Weather Stations

Elev 910 ft 42.47 °N, 92.34 °W | Updated 18 seconds ago

Clear
Clear
63.1 °F
Feels Like 63.1 °F
N
0.9
Wind Variable Wind from ESE
Gusts 3.0 mph

Today
High -- | Low -- °F
--% Chance of Precip.
Yesterday
High -- | Low -- °F
Precip. -- in
6:30 AM 7:50 PM
Waxing Gibbous, 97% visible
Pressure 30.04 in
Visibility 10.0 miles
Clouds Clear
Dew Point 60 °F
Humidity 89%
Rainfall 0.00 in
Snow Depth Not available.
UV 0 out of 12
Pollen 10.10 out of 12
Air Quality Not available.
Flu Activity Not available.
METAR KALO 280554Z AUTO 16009KT 10SM CLR 18/15 A3005 RMK AO2 SLP171 T01830150 10206 20167 402390094 58005
Pressure 30.04 in
Visibility 10.0 miles
Clouds Clear
Dew Point 60 °F
Humidity 89%
Rainfall 0.00 in
Snow Depth Not available.
UV 0 out of 12
Pollen 10.10 out of 12
Air Quality Not available.
Flu Activity Not available.
METAR KALO 280554Z AUTO 16009KT 10SM CLR 18/15 A3005 RMK AO2 SLP171 T01830150 10206 20167 402390094 58005

10-Day Weather Forecast

×

Almanac

Astronomy

Aug. 28, 2015 Rise Set
Actual Time
Civil Twilight
Nautical Twilight
Astronomical Twilight
Moon
Length of Visible Light
Length of Day
Tomorrow will be .
, % of the Moon is Illuminated

Today's Extremes

State Highs State Lows

Community

WunderPhotos

Upload Photos

1,850,341 photos uploaded!

WunderBlogs® & News

Nearby

Air Quality

  Air Quality AQ Index Pollutant
Not available.

Snow Depth

Station Depth Elevation

Earthquake Activity

City Distance Mag. Time & Date
Minimum magnitude displayed is 2.5.

Coastal Water Temperatures

Place Temperature

Stations

Nearby Weather Stations

Station Location Temp. Windchill Dew Point Humidity Wind Precip. Elev Updated Type